sensor_id;sensor_type;location;lat;lon;timestamp;pressure;altitude;pressure_sealevel;temperature;humidity
3748;BME280;1889;50.058;8.688;2023-07-22T00:02:14;100127.40;;;17.61;76.63
3748;BME280;1889;50.058;8.688;2023-07-22T00:04:44;100133.20;;;17.32;78.14
3748;BME280;1889;50.058;8.688;2023-07-22T00:07:13;100131.89;;;17.11;79.70
3748;BME280;1889;50.058;8.688;2023-07-22T00:09:43;100131.89;;;17.11;79.70
3748;BME280;1889;50.058;8.688;2023-07-22T00:12:12;100125.79;;;17.48;77.56
3748;BME280;1889;50.058;8.688;2023-07-22T00:14:42;100119.70;;;17.55;77.76
3748;BME280;1889;50.058;8.688;2023-07-22T00:17:12;100121.91;;;17.55;77.35
3748;BME280;1889;50.058;8.688;2023-07-22T00:19:41;100126.42;;;17.53;77.15
3748;BME280;1889;50.058;8.688;2023-07-22T00:22:11;100129.48;;;17.54;77.33
3748;BME280;1889;50.058;8.688;2023-07-22T00:24:40;100128.87;;;17.29;77.37
3748;BME280;1889;50.058;8.688;2023-07-22T00:27:10;100131.59;;;17.38;77.78
3748;BME280;1889;50.058;8.688;2023-07-22T00:29:39;100133.03;;;17.45;77.82
3748;BME280;1889;50.058;8.688;2023-07-22T00:32:08;100137.84;;;17.37;77.28
3748;BME280;1889;50.058;8.688;2023-07-22T00:34:38;100137.84;;;17.37;77.28
3748;BME280;1889;50.058;8.688;2023-07-22T00:37:07;100139.95;;;17.49;77.37
3748;BME280;1889;50.058;8.688;2023-07-22T00:39:37;100133.77;;;17.48;77.43
3748;BME280;1889;50.058;8.688;2023-07-22T00:42:06;100132.48;;;17.57;77.20
3748;BME280;1889;50.058;8.688;2023-07-22T00:44:36;100128.98;;;17.46;76.77
3748;BME280;1889;50.058;8.688;2023-07-22T00:47:06;100129.39;;;17.37;77.05
3748;BME280;1889;50.058;8.688;2023-07-22T00:49:36;100128.47;;;17.38;77.11
3748;BME280;1889;50.058;8.688;2023-07-22T00:52:06;100126.14;;;17.41;76.66
3748;BME280;1889;50.058;8.688;2023-07-22T00:54:35;100133.80;;;17.28;76.79
3748;BME280;1889;50.058;8.688;2023-07-22T00:57:05;100125.97;;;17.25;76.80
3748;BME280;1889;50.058;8.688;2023-07-22T00:59:35;100130.66;;;17.10;76.48
3748;BME280;1889;50.058;8.688;2023-07-22T01:02:05;100131.52;;;17.10;76.70
3748;BME280;1889;50.058;8.688;2023-07-22T01:04:34;100134.98;;;17.02;77.12
3748;BME280;1889;50.058;8.688;2023-07-22T01:07:04;100126.54;;;16.93;76.85
3748;BME280;1889;50.058;8.688;2023-07-22T01:09:37;100123.26;;;16.96;76.71
3748;BME280;1889;50.058;8.688;2023-07-22T01:12:07;100124.34;;;17.02;77.04
3748;BME280;1889;50.058;8.688;2023-07-22T01:14:41;100121.87;;;17.08;76.11
3748;BME280;1889;50.058;8.688;2023-07-22T01:17:11;100120.36;;;17.02;76.29
3748;BME280;1889;50.058;8.688;2023-07-22T01:19:41;100117.81;;;16.89;75.95
3748;BME280;1889;50.058;8.688;2023-07-22T01:22:11;100118.44;;;16.86;75.98
3748;BME280;1889;50.058;8.688;2023-07-22T01:24:42;100116.36;;;16.82;76.09
3748;BME280;1889;50.058;8.688;2023-07-22T01:27:12;100118.16;;;16.92;75.90
3748;BME280;1889;50.058;8.688;2023-07-22T01:29:42;100118.09;;;16.93;75.98
3748;BME280;1889;50.058;8.688;2023-07-22T01:32:12;100121.93;;;16.96;75.96
3748;BME280;1889;50.058;8.688;2023-07-22T01:34:41;100122.55;;;16.93;75.34
3748;BME280;1889;50.058;8.688;2023-07-22T01:37:10;100122.80;;;16.97;75.11
3748;BME280;1889;50.058;8.688;2023-07-22T01:39:40;100131.45;;;17.02;75.06
3748;BME280;1889;50.058;8.688;2023-07-22T01:42:10;100135.44;;;17.02;75.18
3748;BME280;1889;50.058;8.688;2023-07-22T01:44:40;100129.66;;;17.02;75.43
3748;BME280;1889;50.058;8.688;2023-07-22T01:47:09;100129.26;;;17.01;74.84
3748;BME280;1889;50.058;8.688;2023-07-22T01:49:38;100126.32;;;16.97;74.70
3748;BME280;1889;50.058;8.688;2023-07-22T01:52:08;100130.31;;;16.97;74.54
3748;BME280;1889;50.058;8.688;2023-07-22T01:54:37;100124.59;;;16.96;74.48
3748;BME280;1889;50.058;8.688;2023-07-22T01:57:06;100121.16;;;16.94;75.11
3748;BME280;1889;50.058;8.688;2023-07-22T01:59:36;100123.66;;;16.97;74.33
3748;BME280;1889;50.058;8.688;2023-07-22T02:02:05;100122.27;;;16.89;74.68
3748;BME280;1889;50.058;8.688;2023-07-22T02:04:34;100125.39;;;16.88;74.92
3748;BME280;1889;50.058;8.688;2023-07-22T02:07:04;100122.79;;;16.87;74.70
3748;BME280;1889;50.058;8.688;2023-07-22T02:09:33;100122.79;;;16.87;74.70
3748;BME280;1889;50.058;8.688;2023-07-22T02:12:03;100123.13;;;16.89;74.92
3748;BME280;1889;50.058;8.688;2023-07-22T02:14:32;100122.60;;;16.81;74.04
3748;BME280;1889;50.058;8.688;2023-07-22T02:17:01;100123.41;;;16.83;74.52
3748;BME280;1889;50.058;8.688;2023-07-22T02:19:31;100124.61;;;16.76;74.60
3748;BME280;1889;50.058;8.688;2023-07-22T02:22:00;100126.68;;;16.58;74.22
3748;BME280;1889;50.058;8.688;2023-07-22T02:24:29;100126.04;;;16.63;74.44
3748;BME280;1889;50.058;8.688;2023-07-22T02:26:59;100124.07;;;16.68;74.04
3748;BME280;1889;50.058;8.688;2023-07-22T02:29:28;100126.73;;;16.68;74.50
3748;BME280;1889;50.058;8.688;2023-07-22T02:31:59;100127.44;;;16.71;74.50
3748;BME280;1889;50.058;8.688;2023-07-22T02:34:29;100127.19;;;16.67;74.44
3748;BME280;1889;50.058;8.688;2023-07-22T02:36:58;100113.09;;;16.65;73.88
3748;BME280;1889;50.058;8.688;2023-07-22T02:39:28;100113.09;;;16.65;73.88
3748;BME280;1889;50.058;8.688;2023-07-22T02:41:57;100125.71;;;16.70;73.68
3748;BME280;1889;50.058;8.688;2023-07-22T02:44:26;100125.00;;;16.67;73.46
3748;BME280;1889;50.058;8.688;2023-07-22T02:46:56;100134.70;;;16.68;73.74
3748;BME280;1889;50.058;8.688;2023-07-22T02:49:25;100131.17;;;16.67;73.37
3748;BME280;1889;50.058;8.688;2023-07-22T02:51:54;100129.08;;;16.54;73.33
3748;BME280;1889;50.058;8.688;2023-07-22T02:54:24;100130.50;;;16.40;73.36
3748;BME280;1889;50.058;8.688;2023-07-22T02:56:53;100128.36;;;16.38;73.30
3748;BME280;1889;50.058;8.688;2023-07-22T02:59:23;100123.72;;;16.33;73.95
3748;BME280;1889;50.058;8.688;2023-07-22T03:01:52;100121.20;;;16.40;73.98
3748;BME280;1889;50.058;8.688;2023-07-22T03:04:21;100126.66;;;16.37;73.80
3748;BME280;1889;50.058;8.688;2023-07-22T03:06:51;100126.66;;;16.37;73.80
3748;BME280;1889;50.058;8.688;2023-07-22T03:09:20;100126.40;;;16.44;72.77
3748;BME280;1889;50.058;8.688;2023-07-22T03:11:49;100128.05;;;16.36;72.81
3748;BME280;1889;50.058;8.688;2023-07-22T03:14:19;100134.08;;;16.29;72.80
3748;BME280;1889;50.058;8.688;2023-07-22T03:16:50;100138.95;;;16.18;72.42
3748;BME280;1889;50.058;8.688;2023-07-22T03:19:19;100138.95;;;16.18;72.42
3748;BME280;1889;50.058;8.688;2023-07-22T03:21:49;100133.55;;;16.10;72.66
3748;BME280;1889;50.058;8.688;2023-07-22T03:24:18;100127.22;;;16.02;73.25
3748;BME280;1889;50.058;8.688;2023-07-22T03:26:48;100137.78;;;16.03;72.67
3748;BME280;1889;50.058;8.688;2023-07-22T03:29:17;100135.13;;;16.03;73.23
3748;BME280;1889;50.058;8.688;2023-07-22T03:31:47;100135.13;;;16.03;73.23
3748;BME280;1889;50.058;8.688;2023-07-22T03:34:16;100137.88;;;16.12;72.87
3748;BME280;1889;50.058;8.688;2023-07-22T03:36:45;100145.08;;;16.20;72.81
3748;BME280;1889;50.058;8.688;2023-07-22T03:39:15;100148.50;;;16.12;72.54
3748;BME280;1889;50.058;8.688;2023-07-22T03:41:44;100148.50;;;16.12;72.54
3748;BME280;1889;50.058;8.688;2023-07-22T03:44:13;100144.43;;;16.14;72.43
3748;BME280;1889;50.058;8.688;2023-07-22T03:46:43;100146.27;;;16.01;72.21
3748;BME280;1889;50.058;8.688;2023-07-22T03:49:12;100142.28;;;16.01;72.22
3748;BME280;1889;50.058;8.688;2023-07-22T03:51:41;100145.59;;;15.96;72.25
3748;BME280;1889;50.058;8.688;2023-07-22T03:54:11;100143.41;;;16.06;72.27
3748;BME280;1889;50.058;8.688;2023-07-22T03:56:41;100145.86;;;16.00;72.13
3748;BME280;1889;50.058;8.688;2023-07-22T03:59:10;100147.38;;;15.96;72.19
3748;BME280;1889;50.058;8.688;2023-07-22T04:01:40;100147.39;;;16.06;72.07
3748;BME280;1889;50.058;8.688;2023-07-22T04:04:09;100147.39;;;16.06;72.07
3748;BME280;1889;50.058;8.688;2023-07-22T04:06:38;100151.07;;;16.14;72.36
3748;BME280;1889;50.058;8.688;2023-07-22T04:09:08;100153.61;;;16.17;72.34
3748;BME280;1889;50.058;8.688;2023-07-22T04:11:37;100149.32;;;16.24;72.28
3748;BME280;1889;50.058;8.688;2023-07-22T04:14:07;100145.48;;;16.31;71.85
3748;BME280;1889;50.058;8.688;2023-07-22T04:16:37;100145.48;;;16.31;71.85
3748;BME280;1889;50.058;8.688;2023-07-22T04:19:06;100147.56;;;16.35;71.51
3748;BME280;1889;50.058;8.688;2023-07-22T04:21:35;100146.79;;;16.43;71.10
3748;BME280;1889;50.058;8.688;2023-07-22T04:24:05;100146.79;;;16.43;71.10
3748;BME280;1889;50.058;8.688;2023-07-22T04:26:34;100143.61;;;16.45;71.12
3748;BME280;1889;50.058;8.688;2023-07-22T04:29:03;100149.19;;;16.49;70.79
3748;BME280;1889;50.058;8.688;2023-07-22T04:31:33;100140.69;;;16.51;70.16
3748;BME280;1889;50.058;8.688;2023-07-22T04:34:03;100145.25;;;16.48;71.02
3748;BME280;1889;50.058;8.688;2023-07-22T04:36:33;100145.25;;;16.48;71.02
3748;BME280;1889;50.058;8.688;2023-07-22T04:39:03;100147.73;;;16.52;70.61
3748;BME280;1889;50.058;8.688;2023-07-22T04:41:37;100148.45;;;16.56;71.26
3748;BME280;1889;50.058;8.688;2023-07-22T04:44:06;100147.59;;;16.55;70.86
3748;BME280;1889;50.058;8.688;2023-07-22T04:46:36;100145.86;;;16.54;70.93
3748;BME280;1889;50.058;8.688;2023-07-22T04:49:05;100149.01;;;16.54;71.10
3748;BME280;1889;50.058;8.688;2023-07-22T04:51:34;100149.01;;;16.54;71.10
3748;BME280;1889;50.058;8.688;2023-07-22T04:54:04;100148.05;;;16.66;71.38
3748;BME280;1889;50.058;8.688;2023-07-22T04:56:33;100153.03;;;16.74;71.26
3748;BME280;1889;50.058;8.688;2023-07-22T04:59:02;100146.19;;;16.78;71.67
3748;BME280;1889;50.058;8.688;2023-07-22T05:01:32;100152.52;;;16.76;71.92
3748;BME280;1889;50.058;8.688;2023-07-22T05:04:01;100153.11;;;16.51;72.08
3748;BME280;1889;50.058;8.688;2023-07-22T05:06:31;100153.11;;;16.51;72.08
3748;BME280;1889;50.058;8.688;2023-07-22T05:09:01;100152.58;;;16.74;72.37
3748;BME280;1889;50.058;8.688;2023-07-22T05:11:31;100152.58;;;16.74;72.37
3748;BME280;1889;50.058;8.688;2023-07-22T05:14:00;100154.98;;;17.01;72.00
3748;BME280;1889;50.058;8.688;2023-07-22T05:16:30;100149.98;;;17.03;72.40
3748;BME280;1889;50.058;8.688;2023-07-22T05:18:59;100149.98;;;17.03;72.40
3748;BME280;1889;50.058;8.688;2023-07-22T05:21:28;100163.36;;;16.60;73.35
3748;BME280;1889;50.058;8.688;2023-07-22T05:23:58;100167.31;;;16.71;73.49
3748;BME280;1889;50.058;8.688;2023-07-22T05:26:27;100159.42;;;16.90;72.96
3748;BME280;1889;50.058;8.688;2023-07-22T05:28:56;100168.67;;;16.92;74.48
3748;BME280;1889;50.058;8.688;2023-07-22T05:31:26;100165.94;;;16.83;75.14
3748;BME280;1889;50.058;8.688;2023-07-22T05:33:55;100165.03;;;16.62;76.83
3748;BME280;1889;50.058;8.688;2023-07-22T05:36:24;100170.84;;;16.62;76.96
3748;BME280;1889;50.058;8.688;2023-07-22T05:38:53;100167.45;;;16.03;79.19
3748;BME280;1889;50.058;8.688;2023-07-22T05:41:23;100170.16;;;16.13;80.75
3748;BME280;1889;50.058;8.688;2023-07-22T05:43:52;100164.75;;;16.58;78.99
3748;BME280;1889;50.058;8.688;2023-07-22T05:46:21;100166.20;;;16.87;77.71
3748;BME280;1889;50.058;8.688;2023-07-22T05:48:51;100166.20;;;16.87;77.71
3748;BME280;1889;50.058;8.688;2023-07-22T05:51:20;100174.19;;;16.77;80.23
3748;BME280;1889;50.058;8.688;2023-07-22T05:53:50;100173.26;;;16.78;80.22
3748;BME280;1889;50.058;8.688;2023-07-22T05:56:20;100170.73;;;17.15;78.85
3748;BME280;1889;50.058;8.688;2023-07-22T05:58:49;100167.69;;;16.94;80.28
3748;BME280;1889;50.058;8.688;2023-07-22T06:01:18;100167.05;;;17.28;79.32
3748;BME280;1889;50.058;8.688;2023-07-22T06:03:48;100163.23;;;17.44;79.31
3748;BME280;1889;50.058;8.688;2023-07-22T06:06:18;100172.41;;;17.18;81.07
3748;BME280;1889;50.058;8.688;2023-07-22T06:08:47;100173.73;;;17.08;81.33
3748;BME280;1889;50.058;8.688;2023-07-22T06:11:17;100173.14;;;17.01;82.58
3748;BME280;1889;50.058;8.688;2023-07-22T06:13:46;100166.98;;;17.20;82.66
3748;BME280;1889;50.058;8.688;2023-07-22T06:16:15;100166.47;;;17.22;82.83
3748;BME280;1889;50.058;8.688;2023-07-22T06:18:45;100165.53;;;17.23;84.28
3748;BME280;1889;50.058;8.688;2023-07-22T06:21:14;100171.97;;;17.37;84.29
3748;BME280;1889;50.058;8.688;2023-07-22T06:23:43;100173.22;;;17.49;83.36
3748;BME280;1889;50.058;8.688;2023-07-22T06:26:13;100167.89;;;17.59;83.70
3748;BME280;1889;50.058;8.688;2023-07-22T06:28:42;100166.70;;;18.04;82.02
3748;BME280;1889;50.058;8.688;2023-07-22T06:31:11;100168.89;;;18.04;78.49
3748;BME280;1889;50.058;8.688;2023-07-22T06:33:41;100162.66;;;17.76;81.18
3748;BME280;1889;50.058;8.688;2023-07-22T06:36:10;100173.00;;;17.74;80.36
3748;BME280;1889;50.058;8.688;2023-07-22T06:38:40;100173.00;;;17.74;80.36
3748;BME280;1889;50.058;8.688;2023-07-22T06:41:09;100178.77;;;17.83;82.91
3748;BME280;1889;50.058;8.688;2023-07-22T06:43:38;100190.25;;;17.84;85.10
3748;BME280;1889;50.058;8.688;2023-07-22T06:46:08;100197.88;;;17.83;87.61
3748;BME280;1889;50.058;8.688;2023-07-22T06:48:37;100196.36;;;17.96;86.75
3748;BME280;1889;50.058;8.688;2023-07-22T06:51:07;100202.40;;;17.81;83.45
3748;BME280;1889;50.058;8.688;2023-07-22T06:53:37;100202.40;;;17.81;83.45
3748;BME280;1889;50.058;8.688;2023-07-22T06:56:06;100195.25;;;17.91;85.99
3748;BME280;1889;50.058;8.688;2023-07-22T06:58:35;100190.23;;;18.13;87.68
3748;BME280;1889;50.058;8.688;2023-07-22T07:01:05;100190.23;;;18.13;87.68
3748;BME280;1889;50.058;8.688;2023-07-22T07:03:34;100194.22;;;18.32;86.81
3748;BME280;1889;50.058;8.688;2023-07-22T07:06:03;100189.92;;;18.56;84.68
3748;BME280;1889;50.058;8.688;2023-07-22T07:08:33;100188.39;;;18.87;83.13
3748;BME280;1889;50.058;8.688;2023-07-22T07:11:02;100182.63;;;18.60;81.11
3748;BME280;1889;50.058;8.688;2023-07-22T07:13:31;100190.52;;;18.89;80.97
3748;BME280;1889;50.058;8.688;2023-07-22T07:16:26;100192.54;;;19.01;80.22
3748;BME280;1889;50.058;8.688;2023-07-22T07:18:51;100187.41;;;19.22;79.50
3748;BME280;1889;50.058;8.688;2023-07-22T07:21:22;100185.61;;;19.23;76.71
3748;BME280;1889;50.058;8.688;2023-07-22T07:23:52;100188.80;;;19.38;75.88
3748;BME280;1889;50.058;8.688;2023-07-22T07:26:22;100188.80;;;19.38;75.88
3748;BME280;1889;50.058;8.688;2023-07-22T07:28:52;100185.07;;;19.16;78.22
3748;BME280;1889;50.058;8.688;2023-07-22T07:31:21;100181.12;;;19.40;77.22
3748;BME280;1889;50.058;8.688;2023-07-22T07:33:50;100188.52;;;19.53;75.80
3748;BME280;1889;50.058;8.688;2023-07-22T07:36:20;100185.05;;;19.59;74.69
3748;BME280;1889;50.058;8.688;2023-07-22T07:38:49;100182.41;;;19.75;73.00
3748;BME280;1889;50.058;8.688;2023-07-22T07:41:18;100187.45;;;19.88;72.78
3748;BME280;1889;50.058;8.688;2023-07-22T07:43:47;100185.42;;;20.09;71.80
3748;BME280;1889;50.058;8.688;2023-07-22T07:46:21;100177.40;;;20.25;70.16
3748;BME280;1889;50.058;8.688;2023-07-22T07:48:57;100183.71;;;20.39;68.94
3748;BME280;1889;50.058;8.688;2023-07-22T07:51:23;100175.98;;;20.26;64.79
3748;BME280;1889;50.058;8.688;2023-07-22T07:53:55;100183.81;;;20.29;62.53
3748;BME280;1889;50.058;8.688;2023-07-22T07:56:24;100187.61;;;20.34;63.15
3748;BME280;1889;50.058;8.688;2023-07-22T07:58:54;100192.55;;;20.48;62.00
3748;BME280;1889;50.058;8.688;2023-07-22T08:01:23;100172.73;;;20.82;61.21
3748;BME280;1889;50.058;8.688;2023-07-22T08:03:52;100172.73;;;20.82;61.21
3748;BME280;1889;50.058;8.688;2023-07-22T08:06:22;100181.16;;;20.68;60.01
3748;BME280;1889;50.058;8.688;2023-07-22T08:08:51;100178.42;;;20.76;59.84
3748;BME280;1889;50.058;8.688;2023-07-22T08:11:20;100172.09;;;21.00;58.84
3748;BME280;1889;50.058;8.688;2023-07-22T08:13:49;100178.66;;;21.17;57.31
3748;BME280;1889;50.058;8.688;2023-07-22T08:16:19;100173.07;;;20.99;57.24
3748;BME280;1889;50.058;8.688;2023-07-22T08:18:48;100177.94;;;21.29;57.84
3748;BME280;1889;50.058;8.688;2023-07-22T08:21:17;100175.00;;;21.48;57.86
3748;BME280;1889;50.058;8.688;2023-07-22T08:23:47;100180.05;;;21.67;57.37
3748;BME280;1889;50.058;8.688;2023-07-22T08:26:16;100175.26;;;21.65;55.51
3748;BME280;1889;50.058;8.688;2023-07-22T08:28:47;100174.89;;;21.78;55.67
3748;BME280;1889;50.058;8.688;2023-07-22T08:31:17;100173.45;;;21.58;55.08
3748;BME280;1889;50.058;8.688;2023-07-22T08:33:46;100178.70;;;21.74;54.70
3748;BME280;1889;50.058;8.688;2023-07-22T08:36:15;100170.49;;;21.70;53.71
3748;BME280;1889;50.058;8.688;2023-07-22T08:38:44;100166.75;;;21.87;54.35
3748;BME280;1889;50.058;8.688;2023-07-22T08:41:16;100168.75;;;21.97;54.30
3748;BME280;1889;50.058;8.688;2023-07-22T08:43:46;100163.58;;;22.08;53.78
3748;BME280;1889;50.058;8.688;2023-07-22T08:46:15;100170.47;;;21.91;52.41
3748;BME280;1889;50.058;8.688;2023-07-22T08:48:47;100164.53;;;21.93;53.04
3748;BME280;1889;50.058;8.688;2023-07-22T08:51:18;100163.10;;;22.09;51.66
3748;BME280;1889;50.058;8.688;2023-07-22T08:53:47;100161.59;;;22.05;49.99
3748;BME280;1889;50.058;8.688;2023-07-22T08:56:18;100159.62;;;22.28;50.80
3748;BME280;1889;50.058;8.688;2023-07-22T08:58:48;100164.38;;;22.37;49.98
3748;BME280;1889;50.058;8.688;2023-07-22T09:01:18;100155.70;;;22.54;49.33
3748;BME280;1889;50.058;8.688;2023-07-22T09:03:48;100160.71;;;22.45;48.97
3748;BME280;1889;50.058;8.688;2023-07-22T09:06:19;100151.67;;;22.46;49.29
3748;BME280;1889;50.058;8.688;2023-07-22T09:08:48;100154.41;;;22.32;49.44
3748;BME280;1889;50.058;8.688;2023-07-22T09:11:19;100158.51;;;22.65;49.50
3748;BME280;1889;50.058;8.688;2023-07-22T09:13:49;100157.12;;;22.72;48.67
3748;BME280;1889;50.058;8.688;2023-07-22T09:16:20;100154.71;;;22.55;47.66
3748;BME280;1889;50.058;8.688;2023-07-22T09:18:49;100159.72;;;22.73;48.53
3748;BME280;1889;50.058;8.688;2023-07-22T09:21:19;100157.45;;;22.94;48.53
3748;BME280;1889;50.058;8.688;2023-07-22T09:23:48;100160.48;;;23.15;48.52
3748;BME280;1889;50.058;8.688;2023-07-22T09:26:18;100154.94;;;23.36;48.20
3748;BME280;1889;50.058;8.688;2023-07-22T09:28:50;100155.08;;;23.35;47.60
3748;BME280;1889;50.058;8.688;2023-07-22T09:31:21;100149.51;;;23.43;47.53
3748;BME280;1889;50.058;8.688;2023-07-22T09:33:50;100146.09;;;23.41;46.50
3748;BME280;1889;50.058;8.688;2023-07-22T09:36:21;100149.25;;;23.15;47.48
3748;BME280;1889;50.058;8.688;2023-07-22T09:39:00;100153.55;;;23.31;47.64
3748;BME280;1889;50.058;8.688;2023-07-22T09:41:31;100152.39;;;23.35;46.74
3748;BME280;1889;50.058;8.688;2023-07-22T09:44:03;100144.80;;;23.47;45.96
3748;BME280;1889;50.058;8.688;2023-07-22T09:46:33;100143.84;;;23.73;46.19
3748;BME280;1889;50.058;8.688;2023-07-22T09:49:07;100144.86;;;23.52;46.38
3748;BME280;1889;50.058;8.688;2023-07-22T09:51:38;100147.09;;;23.46;46.05
3748;BME280;1889;50.058;8.688;2023-07-22T09:54:08;100147.28;;;23.63;46.02
3748;BME280;1889;50.058;8.688;2023-07-22T09:56:48;100135.32;;;23.79;44.57
3748;BME280;1889;50.058;8.688;2023-07-22T09:59:19;100132.81;;;23.71;44.52
3748;BME280;1889;50.058;8.688;2023-07-22T10:01:48;100142.48;;;23.23;44.76
3748;BME280;1889;50.058;8.688;2023-07-22T10:04:20;100136.12;;;23.56;44.91
3748;BME280;1889;50.058;8.688;2023-07-22T10:06:51;100140.45;;;23.64;44.54
3748;BME280;1889;50.058;8.688;2023-07-22T10:09:21;100138.59;;;23.59;44.54
3748;BME280;1889;50.058;8.688;2023-07-22T10:11:52;100124.44;;;23.75;44.40
3748;BME280;1889;50.058;8.688;2023-07-22T10:14:21;100130.61;;;23.70;45.32
3748;BME280;1889;50.058;8.688;2023-07-22T10:16:51;100126.30;;;23.68;44.97
3748;BME280;1889;50.058;8.688;2023-07-22T10:19:21;100125.25;;;23.88;44.68
3748;BME280;1889;50.058;8.688;2023-07-22T10:21:53;100124.50;;;24.05;43.86
3748;BME280;1889;50.058;8.688;2023-07-22T10:24:22;100121.84;;;23.92;44.46
3748;BME280;1889;50.058;8.688;2023-07-22T10:26:52;100124.72;;;24.02;44.54
3748;BME280;1889;50.058;8.688;2023-07-22T10:29:22;100119.59;;;23.86;44.70
3748;BME280;1889;50.058;8.688;2023-07-22T10:31:54;100112.92;;;23.73;44.84
3748;BME280;1889;50.058;8.688;2023-07-22T10:34:24;100117.61;;;23.51;44.93
3748;BME280;1889;50.058;8.688;2023-07-22T10:36:55;100113.17;;;23.57;45.06
3748;BME280;1889;50.058;8.688;2023-07-22T10:39:27;100114.17;;;23.62;44.59
3748;BME280;1889;50.058;8.688;2023-07-22T10:42:03;100108.26;;;23.88;44.10
3748;BME280;1889;50.058;8.688;2023-07-22T10:44:39;100102.21;;;23.97;42.49
3748;BME280;1889;50.058;8.688;2023-07-22T10:47:04;100098.95;;;23.86;42.44
3748;BME280;1889;50.058;8.688;2023-07-22T10:49:47;100101.00;;;24.01;42.54
3748;BME280;1889;50.058;8.688;2023-07-22T10:52:37;100090.59;;;23.78;42.22
3748;BME280;1889;50.058;8.688;2023-07-22T10:54:49;100090.64;;;23.40;42.54
3748;BME280;1889;50.058;8.688;2023-07-22T10:59:50;100082.81;;;23.68;42.35
3748;BME280;1889;50.058;8.688;2023-07-22T11:02:27;100086.94;;;23.98;41.92
3748;BME280;1889;50.058;8.688;2023-07-22T11:04:57;100078.28;;;23.81;41.13
3748;BME280;1889;50.058;8.688;2023-07-22T11:07:42;100088.66;;;23.99;41.48
3748;BME280;1889;50.058;8.688;2023-07-22T11:10:18;100089.84;;;23.94;41.42
3748;BME280;1889;50.058;8.688;2023-07-22T11:12:48;100083.81;;;24.09;41.78
3748;BME280;1889;50.058;8.688;2023-07-22T11:15:17;100074.45;;;23.78;41.24
3748;BME280;1889;50.058;8.688;2023-07-22T11:17:46;100070.26;;;24.29;41.25
3748;BME280;1889;50.058;8.688;2023-07-22T11:20:17;100065.06;;;24.44;40.27
3748;BME280;1889;50.058;8.688;2023-07-22T11:22:46;100072.07;;;24.58;39.44
3748;BME280;1889;50.058;8.688;2023-07-22T11:25:18;100065.44;;;24.45;38.38
3748;BME280;1889;50.058;8.688;2023-07-22T11:27:47;100056.23;;;24.42;38.85
3748;BME280;1889;50.058;8.688;2023-07-22T11:30:16;100055.36;;;24.71;39.10
3748;BME280;1889;50.058;8.688;2023-07-22T11:32:45;100064.16;;;24.67;39.27
3748;BME280;1889;50.058;8.688;2023-07-22T11:35:16;100060.05;;;24.86;38.77
3748;BME280;1889;50.058;8.688;2023-07-22T11:37:47;100054.83;;;25.06;38.79
3748;BME280;1889;50.058;8.688;2023-07-22T11:40:16;100044.23;;;24.76;38.48
3748;BME280;1889;50.058;8.688;2023-07-22T11:42:45;100050.81;;;25.12;38.45
3748;BME280;1889;50.058;8.688;2023-07-22T11:45:15;100050.45;;;25.11;38.20
3748;BME280;1889;50.058;8.688;2023-07-22T11:47:44;100044.81;;;25.25;37.87
3748;BME280;1889;50.058;8.688;2023-07-22T11:50:13;100047.63;;;25.52;38.00
3748;BME280;1889;50.058;8.688;2023-07-22T11:52:42;100042.24;;;25.35;37.44
3748;BME280;1889;50.058;8.688;2023-07-22T11:55:13;100041.52;;;25.61;37.19
3748;BME280;1889;50.058;8.688;2023-07-22T11:57:51;100037.33;;;25.62;37.26
3748;BME280;1889;50.058;8.688;2023-07-22T12:00:15;100042.61;;;25.53;37.45
3748;BME280;1889;50.058;8.688;2023-07-22T12:02:44;100035.59;;;25.56;37.98
3748;BME280;1889;50.058;8.688;2023-07-22T12:05:21;100032.64;;;25.81;38.13
3748;BME280;1889;50.058;8.688;2023-07-22T12:07:50;100035.00;;;25.63;38.71
3748;BME280;1889;50.058;8.688;2023-07-22T12:10:19;100035.45;;;25.91;38.64
3748;BME280;1889;50.058;8.688;2023-07-22T12:12:48;100032.87;;;25.89;37.55
3748;BME280;1889;50.058;8.688;2023-07-22T12:17:59;100020.14;;;25.86;37.80
3748;BME280;1889;50.058;8.688;2023-07-22T12:20:31;100010.92;;;25.94;37.53
3748;BME280;1889;50.058;8.688;2023-07-22T12:23:00;100012.12;;;25.95;37.94
3748;BME280;1889;50.058;8.688;2023-07-22T12:25:29;100008.56;;;26.00;36.74
3748;BME280;1889;50.058;8.688;2023-07-22T12:28:00;100008.94;;;25.96;36.60
3748;BME280;1889;50.058;8.688;2023-07-22T12:30:29;100005.96;;;26.04;36.73
3748;BME280;1889;50.058;8.688;2023-07-22T12:32:58;100007.88;;;25.81;36.44
3748;BME280;1889;50.058;8.688;2023-07-22T12:35:27;100016.01;;;25.65;36.73
3748;BME280;1889;50.058;8.688;2023-07-22T12:37:56;100003.41;;;25.09;37.13
3748;BME280;1889;50.058;8.688;2023-07-22T12:40:25;100006.08;;;25.48;37.37
3748;BME280;1889;50.058;8.688;2023-07-22T12:42:54;100014.19;;;25.60;37.03
3748;BME280;1889;50.058;8.688;2023-07-22T12:45:23;100004.47;;;25.57;37.22
3748;BME280;1889;50.058;8.688;2023-07-22T12:47:52;100011.46;;;25.76;37.09
3748;BME280;1889;50.058;8.688;2023-07-22T12:50:21;99999.13;;;25.95;36.46
3748;BME280;1889;50.058;8.688;2023-07-22T12:52:50;100004.30;;;25.92;36.49
3748;BME280;1889;50.058;8.688;2023-07-22T12:55:19;99995.69;;;25.98;36.48
3748;BME280;1889;50.058;8.688;2023-07-22T12:57:48;99994.85;;;26.24;36.44
3748;BME280;1889;50.058;8.688;2023-07-22T13:00:17;99993.37;;;26.31;35.90
3748;BME280;1889;50.058;8.688;2023-07-22T13:02:46;99985.19;;;26.48;36.10
3748;BME280;1889;50.058;8.688;2023-07-22T13:05:15;99985.87;;;26.55;35.97
3748;BME280;1889;50.058;8.688;2023-07-22T13:07:46;99982.20;;;26.92;35.56
3748;BME280;1889;50.058;8.688;2023-07-22T13:10:15;99973.06;;;27.14;35.38
3748;BME280;1889;50.058;8.688;2023-07-22T13:12:46;99964.02;;;27.34;34.99
3748;BME280;1889;50.058;8.688;2023-07-22T13:15:15;99961.18;;;27.36;34.51
3748;BME280;1889;50.058;8.688;2023-07-22T13:17:44;99972.84;;;27.12;34.54
3748;BME280;1889;50.058;8.688;2023-07-22T13:20:13;99969.51;;;26.78;34.30
3748;BME280;1889;50.058;8.688;2023-07-22T13:22:42;99965.35;;;27.10;34.27
3748;BME280;1889;50.058;8.688;2023-07-22T13:25:11;99961.44;;;27.23;33.75
3748;BME280;1889;50.058;8.688;2023-07-22T13:27:40;99980.08;;;27.11;34.34
3748;BME280;1889;50.058;8.688;2023-07-22T13:30:10;99953.48;;;27.07;33.38
3748;BME280;1889;50.058;8.688;2023-07-22T13:32:39;99947.80;;;26.94;32.82